createdAt,value
2018-06-12T00:00:48.243Z,0.00
2018-06-12T00:01:48.249Z,0.00
2018-06-12T00:02:48.243Z,0.00
2018-06-12T00:03:48.243Z,0.00
2018-06-12T00:04:48.245Z,0.00
2018-06-12T00:05:48.243Z,0.00
2018-06-12T00:06:48.244Z,0.00
2018-06-12T00:07:48.241Z,0.00
2018-06-12T00:08:48.243Z,0.00
2018-06-12T00:09:48.249Z,0.00
2018-06-12T00:10:48.242Z,0.00
2018-06-12T00:11:48.238Z,0.00
2018-06-12T00:12:48.245Z,0.00
2018-06-12T00:13:48.241Z,0.00
2018-06-12T00:14:48.242Z,0.00
2018-06-12T00:15:48.238Z,0.00
2018-06-12T00:16:48.241Z,0.00
2018-06-12T00:17:48.240Z,0.00
2018-06-12T00:18:48.243Z,0.00
2018-06-12T00:19:48.237Z,0.00
2018-06-12T00:20:48.240Z,0.00
2018-06-12T00:21:48.240Z,0.00
2018-06-12T00:22:48.239Z,0.00
2018-06-12T00:23:48.240Z,0.00
2018-06-12T00:24:48.239Z,0.00
2018-06-12T00:25:48.237Z,0.00
2018-06-12T00:26:48.237Z,0.00
2018-06-12T00:27:48.237Z,0.00
2018-06-12T00:28:48.237Z,0.00
2018-06-12T00:29:48.232Z,0.00
2018-06-12T00:30:48.237Z,0.00
2018-06-12T00:31:48.235Z,0.00
2018-06-12T00:32:48.232Z,0.00
2018-06-12T00:33:48.235Z,0.00
2018-06-12T00:34:48.235Z,0.00
2018-06-12T00:35:48.232Z,0.00
2018-06-12T00:36:48.229Z,0.00
2018-06-12T00:37:48.231Z,0.00
2018-06-12T00:38:48.233Z,0.00
2018-06-12T00:39:48.231Z,0.00
2018-06-12T00:40:48.231Z,0.00
2018-06-12T00:41:48.230Z,0.00
2018-06-12T00:42:48.230Z,0.00
2018-06-12T00:43:48.224Z,0.00
2018-06-12T00:44:48.226Z,0.00
2018-06-12T00:45:48.227Z,0.00
2018-06-12T00:46:48.226Z,0.00
2018-06-12T00:47:48.226Z,0.00
2018-06-12T00:48:48.225Z,0.00
2018-06-12T00:49:48.225Z,0.00
2018-06-12T00:50:48.224Z,0.00
2018-06-12T00:51:48.230Z,0.00
2018-06-12T00:52:48.222Z,0.00
2018-06-12T00:53:48.223Z,0.00
2018-06-12T00:54:48.219Z,0.00
2018-06-12T00:55:48.219Z,0.00
2018-06-12T00:56:48.218Z,0.00
2018-06-12T00:57:48.216Z,0.00
2018-06-12T00:58:48.219Z,0.00
2018-06-12T00:59:48.218Z,0.00
2018-06-12T01:00:48.216Z,0.00
2018-06-12T01:01:48.214Z,0.00
2018-06-12T01:02:48.218Z,0.00
2018-06-12T01:03:48.209Z,0.00
2018-06-12T01:04:48.214Z,0.00
2018-06-12T01:05:48.217Z,0.00
2018-06-12T01:06:48.213Z,0.00
2018-06-12T01:07:48.212Z,0.00
2018-06-12T01:08:48.215Z,0.00
2018-06-12T01:09:48.211Z,0.00
2018-06-12T01:10:48.211Z,0.00
2018-06-12T01:11:48.206Z,0.00
2018-06-12T01:12:48.212Z,0.00
2018-06-12T01:13:48.210Z,0.00
2018-06-12T01:14:48.206Z,0.00
2018-06-12T01:15:48.207Z,0.00
2018-06-12T01:16:48.205Z,0.00
2018-06-12T01:17:48.205Z,0.00
2018-06-12T01:18:48.202Z,0.00
2018-06-12T01:19:48.253Z,0.00
2018-06-12T01:20:48.203Z,0.00
2018-06-12T01:21:48.201Z,0.00
2018-06-12T01:22:48.204Z,0.00
2018-06-12T01:23:48.199Z,0.00
2018-06-12T01:24:48.201Z,0.00
2018-06-12T01:25:48.197Z,0.00
2018-06-12T01:26:48.197Z,0.00
2018-06-12T01:27:48.197Z,0.00
2018-06-12T01:28:48.194Z,0.00
2018-06-12T01:29:48.196Z,0.00
2018-06-12T01:30:48.195Z,0.00
2018-06-12T01:31:48.196Z,0.00
2018-06-12T01:32:48.193Z,0.00
2018-06-12T01:33:48.193Z,0.00
2018-06-12T01:34:48.190Z,0.00
2018-06-12T01:35:48.189Z,0.00
2018-06-12T01:36:48.188Z,0.00
2018-06-12T01:37:48.187Z,0.00
2018-06-12T01:38:48.184Z,0.00
2018-06-12T01:39:48.187Z,0.00
2018-06-12T01:40:48.183Z,0.00
2018-06-12T01:41:48.183Z,0.00
2018-06-12T01:42:48.186Z,0.00
2018-06-12T01:43:48.181Z,0.00
2018-06-12T01:44:48.180Z,0.00
2018-06-12T01:45:48.179Z,0.00
2018-06-12T01:46:48.180Z,0.00
2018-06-12T01:47:48.178Z,0.00
2018-06-12T01:48:48.178Z,0.00
2018-06-12T01:49:48.176Z,0.00
2018-06-12T01:50:48.176Z,0.00
2018-06-12T01:51:48.171Z,0.00
2018-06-12T01:52:48.173Z,0.00
2018-06-12T01:53:48.175Z,0.00
2018-06-12T01:54:48.173Z,0.00
2018-06-12T01:55:48.171Z,0.00
2018-06-12T01:56:48.171Z,0.00
2018-06-12T01:57:48.168Z,0.00
2018-06-12T01:58:48.167Z,4.00
2018-06-12T01:59:48.172Z,4.00
2018-06-12T02:00:48.165Z,4.00
2018-06-12T02:01:48.163Z,0.00
2018-06-12T02:02:48.162Z,0.00
2018-06-12T02:03:48.164Z,4.00
2018-06-12T02:04:48.157Z,4.00
2018-06-12T02:05:48.159Z,0.00
2018-06-12T02:06:48.157Z,4.00
2018-06-12T02:07:48.155Z,4.00
2018-06-12T02:08:48.156Z,4.00
2018-06-12T02:09:48.156Z,8.00
2018-06-12T02:10:48.156Z,4.00
2018-06-12T02:11:48.152Z,8.00
2018-06-12T02:12:48.151Z,8.00
2018-06-12T02:13:48.150Z,8.00
2018-06-12T02:14:48.149Z,8.00
2018-06-12T02:15:48.146Z,8.00
2018-06-12T02:16:48.147Z,8.00
2018-06-12T02:17:48.151Z,12.00
2018-06-12T02:18:48.144Z,12.00
2018-06-12T02:19:48.143Z,16.00
2018-06-12T02:20:48.143Z,16.00
2018-06-12T02:21:48.143Z,16.00
2018-06-12T02:22:48.140Z,16.00
2018-06-12T02:23:48.139Z,20.00
2018-06-12T02:24:48.140Z,20.00
2018-06-12T02:25:48.219Z,24.00
2018-06-12T02:26:48.135Z,28.00
2018-06-12T02:27:48.132Z,32.00
2018-06-12T02:28:48.135Z,32.00
2018-06-12T02:29:48.132Z,36.00
2018-06-12T02:30:48.126Z,40.00
2018-06-12T02:31:48.129Z,44.00
2018-06-12T02:32:48.127Z,52.00
2018-06-12T02:33:48.126Z,52.00
2018-06-12T02:34:48.125Z,60.00
2018-06-12T02:35:48.123Z,64.00
2018-06-12T02:36:48.123Z,72.00
2018-06-12T02:37:48.119Z,76.00
2018-06-12T02:38:48.124Z,80.00
2018-06-12T02:39:48.122Z,88.00
2018-06-12T02:40:48.115Z,96.00
2018-06-12T02:41:48.119Z,104.00
2018-06-12T02:42:48.116Z,112.00
2018-06-12T02:43:48.111Z,120.00
2018-06-12T02:44:48.112Z,128.00
2018-06-12T02:45:48.117Z,136.00
2018-06-12T02:46:48.115Z,144.00
2018-06-12T02:47:48.110Z,152.00
2018-06-12T02:48:48.110Z,160.00
2018-06-12T02:49:48.110Z,168.00
2018-06-12T02:50:48.109Z,176.00
2018-06-12T02:51:48.110Z,184.00
2018-06-12T02:52:48.110Z,192.00
2018-06-12T02:53:48.107Z,200.00
2018-06-12T02:54:48.105Z,212.00
2018-06-12T02:55:48.107Z,220.00
2018-06-12T02:56:48.106Z,228.00
2018-06-12T02:57:48.101Z,240.00
2018-06-12T02:58:48.104Z,252.00
2018-06-12T02:59:48.106Z,264.00
2018-06-12T03:00:48.108Z,276.00
2018-06-12T03:01:48.102Z,292.00
2018-06-12T03:02:48.103Z,304.00
2018-06-12T03:03:48.101Z,328.00
2018-06-12T03:04:48.106Z,344.00
2018-06-12T03:05:48.100Z,364.00
2018-06-12T03:06:48.095Z,388.00
2018-06-12T03:07:48.099Z,412.00
2018-06-12T03:08:48.095Z,436.00
2018-06-12T03:09:48.098Z,452.00
2018-06-12T03:10:48.089Z,460.00
2018-06-12T03:11:48.091Z,468.00
2018-06-12T03:12:48.093Z,484.00
2018-06-12T03:13:48.092Z,504.00
2018-06-12T03:14:48.093Z,524.00
2018-06-12T03:15:48.090Z,548.00
2018-06-12T03:16:48.091Z,572.00
2018-06-12T03:17:48.088Z,604.00
2018-06-12T03:18:48.088Z,644.00
2018-06-12T03:19:48.094Z,696.00
2018-06-12T03:20:48.089Z,736.00
2018-06-12T03:21:48.080Z,784.00
2018-06-12T03:22:48.085Z,812.00
2018-06-12T03:23:48.083Z,856.00
2018-06-12T03:24:48.083Z,940.00
2018-06-12T03:25:48.081Z,1020.00
2018-06-12T03:26:48.083Z,1096.00
2018-06-12T03:27:48.082Z,1460.00
2018-06-12T03:28:48.078Z,1640.00
2018-06-12T03:29:48.083Z,1396.00
2018-06-12T03:30:48.079Z,1580.00
2018-06-12T03:31:48.077Z,2196.00
2018-06-12T03:32:48.078Z,2368.00
2018-06-12T03:33:48.076Z,2476.00
2018-06-12T03:34:48.075Z,2536.00
2018-06-12T03:35:48.074Z,2532.00
2018-06-12T03:36:48.076Z,2632.00
2018-06-12T03:37:48.074Z,2704.00
2018-06-12T03:38:48.069Z,2640.00
2018-06-12T03:39:48.072Z,2488.00
2018-06-12T03:40:48.072Z,2300.00
2018-06-12T03:41:48.072Z,2464.00
2018-06-12T03:42:48.071Z,2920.00
2018-06-12T03:43:48.069Z,2792.00
2018-06-12T03:44:48.075Z,3024.00
2018-06-12T03:45:48.073Z,3224.00
2018-06-12T03:46:48.070Z,3324.00
2018-06-12T03:47:48.069Z,3552.00
2018-06-12T03:48:48.068Z,3652.00
2018-06-12T03:49:48.069Z,3748.00
2018-06-12T03:50:48.070Z,3832.00
2018-06-12T03:51:48.070Z,3916.00
2018-06-12T03:52:48.070Z,3956.00
2018-06-12T03:53:48.067Z,3772.00
2018-06-12T03:54:48.070Z,4052.00
2018-06-12T03:55:48.070Z,4272.00
2018-06-12T03:56:48.070Z,4388.00
2018-06-12T03:57:48.072Z,4512.00
2018-06-12T03:58:48.070Z,4636.00
2018-06-12T03:59:48.071Z,4764.00
2018-06-12T04:00:48.071Z,4976.00
2018-06-12T04:01:48.071Z,5164.00
2018-06-12T04:02:48.074Z,5308.00
2018-06-12T04:03:48.071Z,5508.00
2018-06-12T04:04:48.071Z,5704.00
2018-06-12T04:05:48.073Z,5856.00
2018-06-12T04:06:48.071Z,5972.00
2018-06-12T04:07:48.077Z,6132.00
2018-06-12T04:08:48.070Z,6304.00
2018-06-12T04:09:48.072Z,6440.00
2018-06-12T04:10:48.079Z,6548.00
2018-06-12T04:11:48.076Z,6652.00
2018-06-12T04:12:48.077Z,6648.00
2018-06-12T04:13:48.078Z,5952.00
2018-06-12T04:14:48.146Z,5996.00
2018-06-12T04:15:48.081Z,6216.00
2018-06-12T04:16:48.084Z,5712.00
2018-06-12T04:17:48.083Z,3880.00
2018-06-12T04:18:48.083Z,3520.00
2018-06-12T04:19:48.087Z,3536.00
2018-06-12T04:20:48.086Z,3396.00
2018-06-12T04:21:48.089Z,3428.00
2018-06-12T04:22:48.090Z,3424.00
2018-06-12T04:23:48.089Z,3552.00
2018-06-12T04:24:48.094Z,3780.00
2018-06-12T04:25:48.095Z,3924.00
2018-06-12T04:26:48.095Z,4184.00
2018-06-12T04:27:48.092Z,5564.00
2018-06-12T04:28:48.096Z,5940.00
2018-06-12T04:29:48.099Z,5424.00
2018-06-12T04:30:48.103Z,7296.00
2018-06-12T04:31:48.102Z,5548.00
2018-06-12T04:32:48.105Z,7404.00
2018-06-12T04:33:48.108Z,4648.00
2018-06-12T04:34:48.107Z,4392.00
2018-06-12T04:35:48.111Z,4252.00
2018-06-12T04:36:48.152Z,4316.00
2018-06-12T04:37:48.111Z,4288.00
2018-06-12T04:38:48.113Z,4332.00
2018-06-12T04:39:48.113Z,4520.00
2018-06-12T04:40:48.117Z,4528.00
2018-06-12T04:41:48.121Z,4628.00
2018-06-12T04:42:48.118Z,4732.00
2018-06-12T04:43:48.119Z,5172.00
2018-06-12T04:44:48.123Z,5404.00
2018-06-12T04:45:48.122Z,6320.00
2018-06-12T04:46:48.120Z,6716.00
2018-06-12T04:47:48.123Z,5444.00
2018-06-12T04:48:48.125Z,5508.00
2018-06-12T04:49:48.128Z,5584.00
2018-06-12T04:50:48.127Z,5740.00
2018-06-12T04:51:48.132Z,5568.00
2018-06-12T04:52:48.132Z,5308.00
2018-06-12T04:53:48.133Z,7368.00
2018-06-12T04:54:48.132Z,5592.00
2018-06-12T04:55:48.134Z,6692.00
2018-06-12T04:56:48.139Z,5548.00
2018-06-12T04:57:48.140Z,5580.00
2018-06-12T04:58:48.139Z,5428.00
2018-06-12T04:59:48.140Z,5608.00
2018-06-12T05:00:48.164Z,5512.00
2018-06-12T05:01:48.143Z,6396.00
2018-06-12T05:02:48.149Z,6412.00
2018-06-12T05:03:48.144Z,5628.00
2018-06-12T05:04:48.145Z,5220.00
2018-06-12T05:05:48.144Z,4956.00
2018-06-12T05:06:48.148Z,4844.00
2018-06-12T05:07:48.149Z,4784.00
2018-06-12T05:08:48.154Z,4780.00
2018-06-12T05:09:48.153Z,4856.00
2018-06-12T05:10:48.156Z,4872.00
2018-06-12T05:11:48.156Z,4980.00
2018-06-12T05:12:48.157Z,5172.00
2018-06-12T05:13:48.158Z,5108.00
2018-06-12T05:14:48.159Z,5108.00
2018-06-12T05:15:48.162Z,5100.00
2018-06-12T05:16:48.163Z,5120.00
2018-06-12T05:17:48.165Z,5300.00
2018-06-12T05:18:48.163Z,5740.00
2018-06-12T05:19:48.163Z,6764.00
2018-06-12T05:20:48.165Z,8632.00
2018-06-12T05:21:48.166Z,8044.00
2018-06-12T05:22:48.171Z,8956.00
2018-06-12T05:23:48.162Z,8976.00
2018-06-12T05:24:48.167Z,8788.00
2018-06-12T05:25:48.181Z,8856.00
2018-06-12T05:26:48.174Z,7072.00
2018-06-12T05:27:48.171Z,7192.00
2018-06-12T05:28:48.175Z,8460.00
2018-06-12T05:29:48.175Z,8228.00
2018-06-12T05:30:48.174Z,7744.00
2018-06-12T05:31:48.177Z,7844.00
2018-06-12T05:32:48.183Z,5684.00
2018-06-12T05:33:48.181Z,5980.00
2018-06-12T05:34:48.177Z,6836.00
2018-06-12T05:35:48.189Z,6320.00
2018-06-12T05:36:48.185Z,5572.00
2018-06-12T05:37:48.188Z,6372.00
2018-06-12T05:38:48.189Z,6572.00
2018-06-12T05:39:48.192Z,7952.00
2018-06-12T05:40:48.194Z,8164.00
2018-06-12T05:41:48.194Z,8108.00
2018-06-12T05:42:48.198Z,7116.00
2018-06-12T05:43:48.200Z,8184.00
2018-06-12T05:44:48.198Z,8080.00
2018-06-12T05:45:48.204Z,7828.00
2018-06-12T05:46:48.256Z,7500.00
2018-06-12T05:47:48.210Z,5824.00
2018-06-12T05:48:48.211Z,4364.00
2018-06-12T05:49:48.213Z,6536.00
2018-06-12T05:50:48.215Z,8296.00
2018-06-12T05:51:48.217Z,8364.00
2018-06-12T05:52:48.219Z,8308.00
2018-06-12T05:53:48.223Z,8932.00
2018-06-12T05:54:48.224Z,9852.00
2018-06-12T05:55:48.252Z,10080.00
2018-06-12T05:56:48.229Z,10884.00
2018-06-12T05:57:48.236Z,10396.00
2018-06-12T05:58:48.233Z,10476.00
2018-06-12T05:59:48.235Z,10676.00
2018-06-12T06:00:48.240Z,9244.00
2018-06-12T06:01:48.239Z,11964.00
2018-06-12T06:02:48.243Z,12984.00
2018-06-12T06:03:48.248Z,9044.00
2018-06-12T06:04:48.249Z,7268.00
2018-06-12T06:05:48.251Z,6000.00
2018-06-12T06:06:48.256Z,5760.00
2018-06-12T06:07:48.252Z,5824.00
2018-06-12T06:08:48.257Z,5476.00
2018-06-12T06:09:48.263Z,5504.00
2018-06-12T06:10:48.267Z,6552.00
2018-06-12T06:11:48.274Z,6676.00
2018-06-12T06:12:48.272Z,6100.00
2018-06-12T06:13:48.273Z,5408.00
2018-06-12T06:14:48.277Z,5024.00
2018-06-12T06:15:48.280Z,4968.00
2018-06-12T06:16:48.284Z,4492.00
2018-06-12T06:17:48.286Z,4456.00
2018-06-12T06:18:48.286Z,4792.00
2018-06-12T06:19:48.288Z,4388.00
2018-06-12T06:20:48.292Z,4312.00
2018-06-12T06:21:48.294Z,4360.00
2018-06-12T06:22:48.302Z,4292.00
2018-06-12T06:23:48.299Z,4380.00
2018-06-12T06:24:48.302Z,4600.00
2018-06-12T06:25:48.302Z,4860.00
2018-06-12T06:26:48.304Z,5508.00
2018-06-12T06:27:48.303Z,5612.00
2018-06-12T06:28:48.306Z,6048.00
2018-06-12T06:29:48.346Z,7028.00
2018-06-12T06:30:48.314Z,8452.00
2018-06-12T06:31:48.312Z,8968.00
2018-06-12T06:32:48.315Z,8920.00
2018-06-12T06:33:48.316Z,8448.00
2018-06-12T06:34:48.319Z,7080.00
2018-06-12T06:35:48.318Z,6384.00
2018-06-12T06:36:48.328Z,6868.00
2018-06-12T06:37:48.326Z,6872.00
2018-06-12T06:38:48.327Z,7412.00
2018-06-12T06:39:48.327Z,6884.00
2018-06-12T06:40:48.325Z,6868.00
2018-06-12T06:41:48.329Z,8104.00
2018-06-12T06:42:48.332Z,8080.00
2018-06-12T06:43:48.329Z,8340.00
2018-06-12T06:44:48.333Z,9428.00
2018-06-12T06:45:48.333Z,9816.00
2018-06-12T06:46:48.336Z,10260.00
2018-06-12T06:47:48.333Z,9560.00
2018-06-12T06:48:48.338Z,9800.00
2018-06-12T06:49:48.355Z,9560.00
2018-06-12T06:50:48.338Z,10612.00
2018-06-12T06:51:48.340Z,10408.00
2018-06-12T06:52:48.344Z,9676.00
2018-06-12T06:53:48.345Z,7048.00
2018-06-12T06:54:48.346Z,6424.00
2018-06-12T06:55:48.347Z,6764.00
2018-06-12T06:56:48.348Z,6740.00
2018-06-12T06:57:48.355Z,6904.00
2018-06-12T06:58:48.389Z,7392.00
2018-06-12T06:59:48.356Z,7636.00
2018-06-12T07:00:48.359Z,7308.00
2018-06-12T07:01:48.356Z,6292.00
2018-06-12T07:02:48.359Z,5788.00
2018-06-12T07:03:48.359Z,5804.00
2018-06-12T07:04:48.361Z,5848.00
2018-06-12T07:05:48.362Z,5768.00
2018-06-12T07:06:48.364Z,5448.00
2018-06-12T07:07:48.362Z,5208.00
2018-06-12T07:08:48.372Z,5060.00
2018-06-12T07:09:48.370Z,4964.00
2018-06-12T07:10:48.369Z,4860.00
2018-06-12T07:11:48.370Z,5112.00
2018-06-12T07:12:48.370Z,5460.00
2018-06-12T07:13:48.375Z,5428.00
2018-06-12T07:14:48.374Z,5452.00
2018-06-12T07:15:48.376Z,5260.00
2018-06-12T07:16:48.376Z,4796.00
2018-06-12T07:17:48.379Z,4580.00
2018-06-12T07:18:48.380Z,4628.00
2018-06-12T07:19:48.452Z,4860.00
2018-06-12T07:20:48.382Z,5292.00
2018-06-12T07:21:48.389Z,6408.00
2018-06-12T07:22:48.383Z,7408.00
2018-06-12T07:23:48.385Z,7444.00
2018-06-12T07:24:48.386Z,7728.00
2018-06-12T07:25:48.388Z,7740.00
2018-06-12T07:26:48.390Z,8040.00
2018-06-12T07:27:48.393Z,8848.00
2018-06-12T07:28:48.388Z,10444.00
2018-06-12T07:29:48.393Z,12524.00
2018-06-12T07:30:48.394Z,17280.00
2018-06-12T07:31:48.394Z,18240.00
2018-06-12T07:32:48.539Z,10080.00
2018-06-12T07:33:48.397Z,10108.00
2018-06-12T07:34:48.398Z,10944.00
2018-06-12T07:35:48.400Z,12912.00
2018-06-12T07:36:48.402Z,34784.00
2018-06-12T07:37:48.443Z,13384.00
2018-06-12T07:38:48.406Z,13704.00
2018-06-12T07:39:48.409Z,11648.00
2018-06-12T07:40:48.405Z,11520.00
2018-06-12T07:41:48.408Z,14844.00
2018-06-12T07:42:48.413Z,23712.00
2018-06-12T07:43:48.414Z,11616.00
2018-06-12T07:44:48.416Z,10324.00
2018-06-12T07:45:48.415Z,10828.00
2018-06-12T07:46:48.423Z,15068.00
2018-06-12T07:47:48.421Z,12484.00
2018-06-12T07:48:48.416Z,10300.00
2018-06-12T07:49:48.419Z,10596.00
2018-06-12T07:50:48.427Z,11084.00
2018-06-12T07:51:48.427Z,11620.00
2018-06-12T07:52:48.427Z,10184.00
2018-06-12T07:53:48.424Z,10760.00
2018-06-12T07:54:48.427Z,11252.00
2018-06-12T07:55:48.433Z,9496.00
2018-06-12T07:56:48.431Z,9800.00
2018-06-12T07:57:48.433Z,10496.00
2018-06-12T07:58:48.436Z,13036.00
2018-06-12T07:59:48.624Z,9676.00
2018-06-12T08:00:48.464Z,9196.00
2018-06-12T08:01:48.556Z,9184.00
2018-06-12T08:02:48.441Z,9824.00
2018-06-12T08:03:48.443Z,10040.00
2018-06-12T08:04:48.444Z,10132.00
2018-06-12T08:05:48.445Z,10588.00
2018-06-12T08:06:48.449Z,10156.00
2018-06-12T08:07:48.586Z,9916.00
2018-06-12T08:08:48.449Z,10792.00
2018-06-12T08:09:48.665Z,9560.00
2018-06-12T08:10:48.454Z,15460.00
2018-06-12T08:11:48.454Z,12888.00
2018-06-12T08:12:48.472Z,13776.00
2018-06-12T08:13:48.459Z,12756.00
2018-06-12T08:14:48.459Z,12224.00
2018-06-12T08:15:48.461Z,11464.00
2018-06-12T08:16:48.531Z,11000.00
2018-06-12T08:17:48.466Z,11168.00
2018-06-12T08:18:48.467Z,9480.00
2018-06-12T08:19:48.471Z,9108.00
2018-06-12T08:20:48.472Z,10312.00
2018-06-12T08:21:48.538Z,10672.00
2018-06-12T08:22:48.472Z,9024.00
2018-06-12T08:23:48.487Z,9268.00
2018-06-12T08:24:48.480Z,9180.00
2018-06-12T08:25:48.476Z,8812.00
2018-06-12T08:26:48.481Z,8876.00
2018-06-12T08:27:48.475Z,9344.00
2018-06-12T08:28:48.482Z,9964.00
2018-06-12T08:29:48.571Z,10168.00
2018-06-12T08:30:48.485Z,10212.00
2018-06-12T08:31:48.480Z,14300.00
2018-06-12T08:32:48.487Z,16032.00
2018-06-12T08:33:48.489Z,12996.00
2018-06-12T08:34:48.495Z,10740.00
2018-06-12T08:35:48.499Z,9392.00
2018-06-12T08:36:48.496Z,32704.00
2018-06-12T08:37:48.497Z,8440.00
2018-06-12T08:38:48.497Z,8500.00
2018-06-12T08:39:48.586Z,8560.00
2018-06-12T08:40:48.542Z,9416.00
2018-06-12T08:41:48.504Z,9628.00
2018-06-12T08:42:48.506Z,9664.00
2018-06-12T08:43:48.507Z,9784.00
2018-06-12T08:44:48.508Z,8856.00
2018-06-12T08:45:48.522Z,8756.00
2018-06-12T08:46:48.514Z,8732.00
2018-06-12T08:47:48.511Z,8720.00
2018-06-12T08:48:48.515Z,8868.00
2018-06-12T08:49:48.551Z,8928.00
2018-06-12T08:50:48.520Z,9100.00
2018-06-12T08:51:48.523Z,9776.00
2018-06-12T08:52:48.524Z,8992.00
2018-06-12T08:53:48.526Z,8636.00
2018-06-12T08:54:48.530Z,8392.00
2018-06-12T08:55:48.530Z,8340.00
2018-06-12T08:56:48.534Z,8592.00
2018-06-12T08:57:48.534Z,9052.00
2018-06-12T08:58:48.536Z,9448.00
2018-06-12T08:59:48.539Z,9436.00
2018-06-12T09:00:48.544Z,9332.00
2018-06-12T09:01:48.564Z,9556.00
2018-06-12T09:02:48.545Z,10340.00
2018-06-12T09:03:48.549Z,10936.00
2018-06-12T09:04:48.549Z,10748.00
2018-06-12T09:05:48.709Z,10712.00
2018-06-12T09:06:48.552Z,9952.00
2018-06-12T09:07:48.554Z,9136.00
2018-06-12T09:08:48.645Z,9064.00
2018-06-12T09:09:48.583Z,9196.00
2018-06-12T09:10:48.560Z,9080.00
2018-06-12T09:11:48.563Z,8928.00
2018-06-12T09:12:48.565Z,8756.00
2018-06-12T09:13:48.673Z,8636.00
2018-06-12T09:14:48.569Z,8516.00
2018-06-12T09:15:48.569Z,8404.00
2018-06-12T09:16:48.578Z,8548.00
2018-06-12T09:17:48.574Z,8540.00
2018-06-12T09:18:48.576Z,8396.00
2018-06-12T09:19:48.577Z,8504.00
2018-06-12T09:20:48.580Z,8752.00
2018-06-12T09:21:48.581Z,8920.00
2018-06-12T09:22:48.586Z,9080.00
2018-06-12T09:23:48.884Z,9232.00
2018-06-12T09:24:48.612Z,9304.00
2018-06-12T09:25:48.589Z,9120.00
2018-06-12T09:26:48.593Z,8960.00
2018-06-12T09:27:48.594Z,9192.00
2018-06-12T09:28:48.599Z,9564.00
2018-06-12T09:29:48.597Z,9640.00
2018-06-12T09:30:48.613Z,9576.00
2018-06-12T09:31:48.602Z,9332.00
2018-06-12T09:32:48.602Z,9636.00
2018-06-12T09:33:48.666Z,9784.00
2018-06-12T09:34:48.611Z,9912.00
2018-06-12T09:35:48.610Z,9948.00
2018-06-12T09:36:48.612Z,10176.00
2018-06-12T09:37:48.616Z,10200.00
2018-06-12T09:38:48.649Z,10128.00
2018-06-12T09:39:48.617Z,10288.00
2018-06-12T09:40:48.709Z,10356.00
2018-06-12T09:41:48.627Z,10324.00
2018-06-12T09:42:48.625Z,10320.00
2018-06-12T09:43:49.007Z,9924.00
2018-06-12T09:44:48.634Z,9412.00
2018-06-12T09:45:48.632Z,8912.00
2018-06-12T09:46:48.637Z,8944.00
2018-06-12T09:47:48.638Z,9404.00
2018-06-12T09:48:48.637Z,10280.00
2018-06-12T09:49:48.641Z,10924.00
2018-06-12T09:50:48.639Z,10608.00
2018-06-12T09:51:48.643Z,10256.00
2018-06-12T09:52:48.646Z,10056.00
2018-06-12T09:53:48.646Z,9932.00
2018-06-12T09:54:48.650Z,9880.00
2018-06-12T09:55:48.653Z,10364.00
2018-06-12T09:56:48.772Z,10828.00
2018-06-12T09:57:48.719Z,10404.00
2018-06-12T09:58:48.776Z,9756.00
2018-06-12T09:59:48.665Z,9448.00
2018-06-12T10:00:48.671Z,9676.00
2018-06-12T10:01:48.693Z,10560.00
2018-06-12T10:02:48.670Z,11620.00
2018-06-12T10:03:48.670Z,12484.00
2018-06-12T10:04:48.676Z,12380.00
2018-06-12T10:05:48.676Z,12244.00
2018-06-12T10:06:48.731Z,12280.00
2018-06-12T10:07:48.715Z,12848.00
2018-06-12T10:08:48.734Z,11664.00
2018-06-12T10:09:48.687Z,10636.00
2018-06-12T10:10:48.824Z,10516.00
2018-06-12T10:11:48.687Z,10416.00
2018-06-12T10:12:48.694Z,10084.00
2018-06-12T10:13:48.700Z,9952.00
2018-06-12T10:14:48.710Z,10008.00
2018-06-12T10:15:48.709Z,9880.00
2018-06-12T10:16:48.699Z,9716.00
2018-06-12T10:17:48.705Z,9660.00
2018-06-12T10:18:48.762Z,10208.00
2018-06-12T10:19:48.712Z,10856.00
2018-06-12T10:20:48.726Z,11356.00
2018-06-12T10:21:48.719Z,11920.00
2018-06-12T10:22:48.719Z,12172.00
2018-06-12T10:23:48.722Z,12544.00
2018-06-12T10:24:48.781Z,12172.00
2018-06-12T10:25:48.728Z,11272.00
2018-06-12T10:26:48.729Z,10232.00
2018-06-12T10:27:48.733Z,10076.00
2018-06-12T10:28:48.757Z,9556.00
2018-06-12T10:29:48.738Z,9336.00
2018-06-12T10:30:48.735Z,8732.00
2018-06-12T10:31:48.777Z,8136.00
2018-06-12T10:32:48.747Z,8408.00
2018-06-12T10:33:48.747Z,8784.00
2018-06-12T10:34:48.750Z,9104.00
2018-06-12T10:35:48.751Z,8936.00
2018-06-12T10:36:48.754Z,8760.00
2018-06-12T10:37:48.757Z,8896.00
2018-06-12T10:38:48.761Z,9568.00
2018-06-12T10:39:48.761Z,9284.00
2018-06-12T10:40:48.831Z,9324.00
2018-06-12T10:41:48.860Z,9884.00
2018-06-12T10:42:48.772Z,9972.00
2018-06-12T10:43:48.776Z,9416.00
2018-06-12T10:44:48.776Z,8680.00
2018-06-12T10:45:48.779Z,7044.00
2018-06-12T10:46:48.780Z,5348.00
2018-06-12T10:47:48.782Z,4884.00
2018-06-12T10:48:48.786Z,4640.00
2018-06-12T10:49:48.787Z,4740.00
2018-06-12T10:50:48.792Z,5088.00
2018-06-12T10:51:48.792Z,5452.00
2018-06-12T10:52:48.796Z,5984.00
2018-06-12T10:53:49.885Z,6552.00
2018-06-12T10:54:48.797Z,7552.00
2018-06-12T10:55:48.805Z,8104.00
2018-06-12T10:56:48.806Z,7944.00
2018-06-12T10:57:48.805Z,7588.00
2018-06-12T10:58:48.808Z,7020.00
2018-06-12T10:59:49.317Z,5872.00
2018-06-12T11:00:48.812Z,5684.00
2018-06-12T11:01:48.816Z,5856.00
2018-06-12T11:02:48.816Z,5260.00
2018-06-12T11:03:48.822Z,4764.00
2018-06-12T11:04:48.816Z,5028.00
2018-06-12T11:05:48.820Z,5188.00
2018-06-12T11:06:48.827Z,4836.00
2018-06-12T11:07:48.827Z,4332.00
2018-06-12T11:08:48.838Z,4680.00
2018-06-12T11:09:48.830Z,4736.00
2018-06-12T11:10:48.858Z,3868.00
2018-06-12T11:11:49.067Z,3264.00
2018-06-12T11:12:48.835Z,3304.00
2018-06-12T11:13:48.838Z,3716.00
2018-06-12T11:14:48.841Z,4320.00
2018-06-12T11:15:48.844Z,5236.00
2018-06-12T11:16:48.845Z,5824.00
2018-06-12T11:17:48.849Z,6620.00
2018-06-12T11:18:48.855Z,6836.00
2018-06-12T11:19:48.850Z,6676.00
2018-06-12T11:20:48.998Z,5144.00
2018-06-12T11:21:49.198Z,3920.00
2018-06-12T11:22:48.850Z,3200.00
2018-06-12T11:23:48.855Z,3024.00
2018-06-12T11:24:50.241Z,2616.00
2018-06-12T11:25:48.863Z,2856.00
2018-06-12T11:26:48.865Z,2804.00
2018-06-12T11:27:48.864Z,3480.00
2018-06-12T11:28:48.865Z,4064.00
2018-06-12T11:29:48.869Z,4952.00
2018-06-12T11:30:48.875Z,6028.00
2018-06-12T11:31:49.207Z,6404.00
2018-06-12T11:32:48.880Z,5796.00
2018-06-12T11:33:49.086Z,4520.00
2018-06-12T11:34:48.876Z,3436.00
2018-06-12T11:35:48.876Z,3044.00
2018-06-12T11:36:48.879Z,3064.00
2018-06-12T11:37:49.102Z,3480.00
2018-06-12T11:38:48.887Z,3480.00
2018-06-12T11:39:48.883Z,3268.00
2018-06-12T11:40:48.886Z,3416.00
2018-06-12T11:41:49.471Z,3184.00
2018-06-12T11:42:48.890Z,2760.00
2018-06-12T11:43:48.895Z,2940.00
2018-06-12T11:44:48.893Z,2804.00
2018-06-12T11:45:48.898Z,3124.00
2018-06-12T11:46:48.892Z,3144.00
2018-06-12T11:47:48.896Z,3644.00
2018-06-12T11:48:48.901Z,4024.00
2018-06-12T11:49:48.900Z,4040.00
2018-06-12T11:50:48.903Z,3556.00
2018-06-12T11:51:48.902Z,3548.00
2018-06-12T11:52:48.905Z,3392.00
2018-06-12T11:53:48.907Z,3440.00
2018-06-12T11:54:48.913Z,3364.00
2018-06-12T11:55:48.910Z,3348.00
2018-06-12T11:56:48.911Z,3228.00
2018-06-12T11:57:48.948Z,3096.00
2018-06-12T11:58:48.918Z,3076.00
2018-06-12T11:59:49.028Z,3260.00
2018-06-12T12:00:48.949Z,3376.00
2018-06-12T12:01:48.985Z,3724.00
2018-06-12T12:02:48.951Z,3660.00
2018-06-12T12:03:49.479Z,4024.00
2018-06-12T12:04:48.929Z,3748.00
2018-06-12T12:05:49.120Z,3620.00
2018-06-12T12:06:49.044Z,3636.00
2018-06-12T12:07:50.283Z,3608.00
2018-06-12T12:08:49.207Z,4108.00
2018-06-12T12:09:49.132Z,4220.00
2018-06-12T12:10:49.622Z,4376.00
2018-06-12T12:11:49.187Z,4476.00
2018-06-12T12:12:49.121Z,4756.00
2018-06-12T12:13:49.189Z,5096.00
2018-06-12T12:14:49.016Z,4972.00
2018-06-12T12:15:49.101Z,4736.00
2018-06-12T12:16:49.085Z,4604.00
2018-06-12T12:17:49.257Z,4732.00